createdAt,value
2019-03-20T00:00:03.370Z,1033.7
2019-03-20T00:01:03.563Z,1033.7
2019-03-20T00:02:03.713Z,1033.6
2019-03-20T00:03:03.733Z,1033.6
2019-03-20T00:04:03.785Z,1033.7
2019-03-20T00:05:04.048Z,1033.7
2019-03-20T00:06:02.974Z,1033.6
2019-03-20T00:07:03.740Z,1033.7
2019-03-20T00:08:03.214Z,1033.6
2019-03-20T00:09:03.525Z,1033.6
2019-03-20T00:10:03.339Z,1033.6
2019-03-20T00:11:03.824Z,1033.7
2019-03-20T00:12:03.109Z,1033.6
2019-03-20T00:13:03.942Z,1033.7
2019-03-20T00:14:03.069Z,1033.6
2019-03-20T00:15:03.361Z,1033.6
2019-03-20T00:16:03.249Z,1033.6
2019-03-20T00:17:04.406Z,1033.7
2019-03-20T00:18:03.426Z,1033.7
2019-03-20T00:19:03.122Z,1033.7
2019-03-20T00:20:03.780Z,1033.7
2019-03-20T00:21:03.610Z,1033.7
2019-03-20T00:22:03.556Z,1033.7
2019-03-20T00:23:03.635Z,1033.7
2019-03-20T00:24:03.037Z,1033.8
2019-03-20T00:25:03.123Z,1033.8
2019-03-20T00:26:03.046Z,1033.8
2019-03-20T00:27:03.389Z,1033.8
2019-03-20T00:28:03.359Z,1033.8
2019-03-20T00:29:03.732Z,1033.8
2019-03-20T00:30:03.319Z,1033.8
2019-03-20T00:31:02.903Z,1033.8
2019-03-20T00:32:03.623Z,1033.8
2019-03-20T00:33:03.539Z,1033.8
2019-03-20T00:34:03.807Z,1033.8
2019-03-20T00:35:03.214Z,1033.8
2019-03-20T00:36:03.033Z,1033.8
2019-03-20T00:37:02.962Z,1033.8
2019-03-20T00:38:03.629Z,1033.8
2019-03-20T00:39:03.882Z,1033.8
2019-03-20T00:40:03.401Z,1033.8
2019-03-20T00:41:02.911Z,1033.8
2019-03-20T00:42:03.926Z,1033.8
2019-03-20T00:43:03.346Z,1033.8
2019-03-20T00:44:03.684Z,1033.8
2019-03-20T00:45:03.565Z,1033.7
2019-03-20T00:46:03.754Z,1033.8
2019-03-20T00:47:03.177Z,1033.8
2019-03-20T00:48:03.646Z,1033.8
2019-03-20T00:49:03.334Z,1033.8
2019-03-20T00:50:03.470Z,1033.8
2019-03-20T00:51:03.126Z,1033.8
2019-03-20T00:52:03.155Z,1033.8
2019-03-20T00:53:03.727Z,1033.8
2019-03-20T00:54:03.397Z,1033.8
2019-03-20T00:55:03.807Z,1033.8
2019-03-20T00:56:03.001Z,1033.8
2019-03-20T00:57:03.670Z,1033.8
2019-03-20T00:58:03.156Z,1033.8
2019-03-20T00:59:03.372Z,1033.8
2019-03-20T01:00:03.381Z,1033.8
2019-03-20T01:01:03.264Z,1033.8
2019-03-20T01:02:03.460Z,1033.8
2019-03-20T01:03:03.075Z,1033.8
2019-03-20T01:04:03.242Z,1033.8
2019-03-20T01:05:13.396Z,1033.8
2019-03-20T01:06:03.174Z,1033.7
2019-03-20T01:07:03.108Z,1033.8
2019-03-20T01:08:03.085Z,1033.7
2019-03-20T01:09:03.140Z,1033.8
2019-03-20T01:10:03.155Z,1033.8
2019-03-20T01:11:03.383Z,1033.7
2019-03-20T01:12:03.306Z,1033.7
2019-03-20T01:13:03.144Z,1033.6
2019-03-20T01:14:02.958Z,1033.7
2019-03-20T01:15:03.418Z,1033.7
2019-03-20T01:16:03.042Z,1033.8
2019-03-20T01:17:03.138Z,1033.6
2019-03-20T01:18:03.009Z,1033.7
2019-03-20T01:19:03.180Z,1033.7
2019-03-20T01:20:03.169Z,1033.7
2019-03-20T01:21:04.056Z,1033.7
2019-03-20T01:22:03.893Z,1033.6
2019-03-20T01:23:03.417Z,1033.7
2019-03-20T01:24:03.104Z,1033.8
2019-03-20T01:25:03.175Z,1033.7
2019-03-20T01:26:03.014Z,1033.7
2019-03-20T01:27:03.119Z,1033.6
2019-03-20T01:28:03.821Z,1033.7
2019-03-20T01:29:03.953Z,1033.7
2019-03-20T01:30:03.689Z,1033.8
2019-03-20T01:31:03.658Z,1033.7
2019-03-20T01:32:03.550Z,1033.7
2019-03-20T01:33:03.592Z,1033.6
2019-03-20T01:34:03.974Z,1033.7
2019-03-20T01:35:03.805Z,1033.7
2019-03-20T01:36:03.730Z,1033.6
2019-03-20T01:37:03.944Z,1033.6
2019-03-20T01:38:03.539Z,1033.7
2019-03-20T01:39:03.419Z,1033.7
2019-03-20T01:40:03.691Z,1033.7
2019-03-20T01:41:03.626Z,1033.7
2019-03-20T01:42:03.424Z,1033.6
2019-03-20T01:43:03.508Z,1033.6
2019-03-20T01:44:03.482Z,1033.6
2019-03-20T01:45:03.483Z,1033.6
2019-03-20T01:46:03.660Z,1033.7
2019-03-20T01:47:03.370Z,1033.7
2019-03-20T01:48:03.644Z,1033.7
2019-03-20T01:49:03.421Z,1033.6
2019-03-20T01:50:03.620Z,1033.7
2019-03-20T01:51:03.483Z,1033.6
2019-03-20T01:52:03.362Z,1033.6
2019-03-20T01:53:03.466Z,1033.6
2019-03-20T01:54:03.862Z,1033.6
2019-03-20T01:55:03.530Z,1033.7
2019-03-20T01:56:03.448Z,1033.6
2019-03-20T01:57:03.519Z,1033.6
2019-03-20T01:58:03.439Z,1033.6
2019-03-20T01:59:03.341Z,1033.7
2019-03-20T02:00:03.308Z,1033.6
2019-03-20T02:01:03.014Z,1033.6
2019-03-20T02:02:03.039Z,1033.6
2019-03-20T02:03:02.974Z,1033.7
2019-03-20T02:04:02.919Z,1033.6
2019-03-20T02:05:02.987Z,1033.6
2019-03-20T02:06:02.876Z,1033.7
2019-03-20T02:07:03.320Z,1033.6
2019-03-20T02:08:03.224Z,1033.6
2019-03-20T02:09:02.998Z,1033.6
2019-03-20T02:10:03.350Z,1033.7
2019-03-20T02:11:03.233Z,1033.7
2019-03-20T02:12:03.017Z,1033.6
2019-03-20T02:13:03.222Z,1033.6
2019-03-20T02:14:03.133Z,1033.6
2019-03-20T02:15:03.471Z,1033.6
2019-03-20T02:16:02.760Z,1033.6
2019-03-20T02:17:03.164Z,1033.6
2019-03-20T02:18:03.081Z,1033.5
2019-03-20T02:19:03.297Z,1033.6
2019-03-20T02:20:03.041Z,1033.7
2019-03-20T02:21:03.094Z,1033.6
2019-03-20T02:22:03.215Z,1033.6
2019-03-20T02:23:02.821Z,1033.6
2019-03-20T02:24:03.101Z,1033.5
2019-03-20T02:25:03.767Z,1033.6
2019-03-20T02:26:03.652Z,1033.6
2019-03-20T02:27:03.698Z,1033.6
2019-03-20T02:28:03.153Z,1033.6
2019-03-20T02:29:03.919Z,1033.6
2019-03-20T02:30:02.909Z,1033.6
2019-03-20T02:31:03.119Z,1033.5
2019-03-20T02:32:02.908Z,1033.6
2019-03-20T02:33:02.951Z,1033.5
2019-03-20T02:34:03.175Z,1033.7
2019-03-20T02:35:03.319Z,1033.6
2019-03-20T02:36:03.931Z,1033.6
2019-03-20T02:37:03.185Z,1033.5
2019-03-20T02:38:03.978Z,1033.5
2019-03-20T02:39:03.049Z,1033.5
2019-03-20T02:40:03.063Z,1033.5
2019-03-20T02:41:03.271Z,1033.6
2019-03-20T02:42:03.089Z,1033.6
2019-03-20T02:43:03.824Z,1033.6
2019-03-20T02:44:03.111Z,1033.5
2019-03-20T02:45:02.838Z,1033.6
2019-03-20T02:46:02.804Z,1033.6
2019-03-20T02:47:03.729Z,1033.6
2019-03-20T02:48:03.968Z,1033.5
2019-03-20T02:49:03.791Z,1033.7
2019-03-20T02:50:03.893Z,1033.6
2019-03-20T02:51:03.704Z,1033.6
2019-03-20T02:52:04.641Z,1033.5
2019-03-20T02:53:04.306Z,1033.7
2019-03-20T02:54:03.784Z,1033.6
2019-03-20T02:55:03.955Z,1033.6
2019-03-20T02:56:03.759Z,1033.7
2019-03-20T02:57:03.668Z,1033.7
2019-03-20T02:58:04.001Z,1033.7
2019-03-20T02:59:02.971Z,1033.7
2019-03-20T03:00:04.106Z,1033.7
2019-03-20T03:01:02.936Z,1033.7
2019-03-20T03:02:03.136Z,1033.7
2019-03-20T03:03:03.700Z,1033.7
2019-03-20T03:04:03.484Z,1033.7
2019-03-20T03:05:03.822Z,1033.7
2019-03-20T03:06:08.107Z,1033.7
2019-03-20T03:07:03.502Z,1033.7
2019-03-20T03:08:03.737Z,1033.7
2019-03-20T03:09:03.690Z,1033.7
2019-03-20T03:10:03.730Z,1033.7
2019-03-20T03:11:03.457Z,1033.7
2019-03-20T03:12:03.932Z,1033.6
2019-03-20T03:13:03.773Z,1033.7
2019-03-20T03:14:03.658Z,1033.7
2019-03-20T03:15:02.927Z,1033.6
2019-03-20T03:16:03.426Z,1033.7
2019-03-20T03:17:03.636Z,1033.8
2019-03-20T03:18:03.710Z,1033.7
2019-03-20T03:19:03.519Z,1033.8
2019-03-20T03:20:03.689Z,1033.8
2019-03-20T03:21:03.723Z,1033.8
2019-03-20T03:22:03.620Z,1033.8
2019-03-20T03:23:03.551Z,1033.7
2019-03-20T03:24:03.588Z,1033.8
2019-03-20T03:25:03.602Z,1033.8
2019-03-20T03:26:03.579Z,1033.8
2019-03-20T03:27:03.363Z,1033.8
2019-03-20T03:28:03.560Z,1033.8
2019-03-20T03:29:03.513Z,1033.8
2019-03-20T03:30:03.662Z,1033.8
2019-03-20T03:31:03.558Z,1033.9
2019-03-20T03:32:03.557Z,1033.8
2019-03-20T03:33:03.763Z,1033.8
2019-03-20T03:34:03.398Z,1033.9
2019-03-20T03:35:03.573Z,1033.9
2019-03-20T03:36:03.697Z,1033.8
2019-03-20T03:37:03.665Z,1033.9
2019-03-20T03:38:03.643Z,1033.9
2019-03-20T03:39:03.725Z,1033.8
2019-03-20T03:40:03.697Z,1033.9
2019-03-20T03:41:03.399Z,1034.1
2019-03-20T03:42:03.119Z,1034.1
2019-03-20T03:43:03.526Z,1033.9
2019-03-20T03:44:03.168Z,1033.8
2019-03-20T03:45:03.337Z,1033.9
2019-03-20T03:46:03.362Z,1033.9
2019-03-20T03:47:03.487Z,1033.9
2019-03-20T03:48:03.385Z,1033.9
2019-03-20T03:49:03.057Z,1034
2019-03-20T03:50:03.628Z,1033.9
2019-03-20T03:51:03.309Z,1034
2019-03-20T03:52:03.451Z,1033.9
2019-03-20T03:53:03.295Z,1034
2019-03-20T03:54:03.180Z,1033.9
2019-03-20T03:55:03.255Z,1034
2019-03-20T03:56:03.301Z,1034
2019-03-20T03:57:03.302Z,1034
2019-03-20T03:58:03.377Z,1034
2019-03-20T03:59:03.275Z,1034
2019-03-20T04:00:03.214Z,1034
2019-03-20T04:01:03.121Z,1034
2019-03-20T04:02:03.357Z,1034
2019-03-20T04:03:03.120Z,1034
2019-03-20T04:04:03.215Z,1034
2019-03-20T04:05:03.958Z,1034.1
2019-03-20T04:06:02.949Z,1034.1
2019-03-20T04:07:02.984Z,1034.1
2019-03-20T04:08:03.119Z,1034.2
2019-03-20T04:09:03.684Z,1034.2
2019-03-20T04:10:02.966Z,1034.2
2019-03-20T04:11:02.959Z,1034.3
2019-03-20T04:12:03.513Z,1034.1
2019-03-20T04:13:03.253Z,1034.1
2019-03-20T04:14:02.903Z,1034
2019-03-20T04:15:03.333Z,1034
2019-03-20T04:16:02.771Z,1034
2019-03-20T04:17:03.231Z,1034.1
2019-03-20T04:18:02.905Z,1034
2019-03-20T04:19:03.167Z,1034
2019-03-20T04:20:03.688Z,1034.1
2019-03-20T04:21:04.003Z,1034.1
2019-03-20T04:22:02.923Z,1034
2019-03-20T04:23:03.885Z,1034.1
2019-03-20T04:24:03.022Z,1034.1
2019-03-20T04:25:03.986Z,1034.1
2019-03-20T04:26:03.058Z,1034.1
2019-03-20T04:27:03.978Z,1034.1
2019-03-20T04:28:03.302Z,1034.2
2019-03-20T04:29:03.762Z,1034.2
2019-03-20T04:30:03.743Z,1034.1
2019-03-20T04:31:03.927Z,1034.2
2019-03-20T04:32:03.059Z,1034.2
2019-03-20T04:33:03.079Z,1034.2
2019-03-20T04:34:03.722Z,1034.2
2019-03-20T04:35:03.940Z,1034.2
2019-03-20T04:36:03.828Z,1034.2
2019-03-20T04:37:03.734Z,1034.2
2019-03-20T04:38:03.661Z,1034.3
2019-03-20T04:39:03.939Z,1034.2
2019-03-20T04:40:03.705Z,1034.2
2019-03-20T04:41:03.924Z,1034.3
2019-03-20T04:42:03.708Z,1034.2
2019-03-20T04:43:03.131Z,1034.2
2019-03-20T04:44:03.676Z,1034.4
2019-03-20T04:45:03.880Z,1034.4
2019-03-20T04:46:03.714Z,1034.4
2019-03-20T04:47:03.582Z,1034.4
2019-03-20T04:48:02.637Z,1034.4
2019-03-20T04:49:03.778Z,1034.5
2019-03-20T04:50:03.969Z,1034.5
2019-03-20T04:51:03.643Z,1034.5
2019-03-20T04:52:03.945Z,1034.5
2019-03-20T04:53:03.598Z,1034.5
2019-03-20T04:54:03.761Z,1034.5
2019-03-20T04:55:03.426Z,1034.5
2019-03-20T04:56:03.574Z,1034.5
2019-03-20T04:57:03.899Z,1034.5
2019-03-20T04:58:03.184Z,1034.4
2019-03-20T04:59:03.658Z,1034.5
2019-03-20T05:00:03.531Z,1034.6
2019-03-20T05:01:03.477Z,1034.6
2019-03-20T05:02:03.204Z,1034.6
2019-03-20T05:03:03.549Z,1034.6
2019-03-20T05:04:03.443Z,1034.6
2019-03-20T05:05:03.655Z,1034.6
2019-03-20T05:06:03.353Z,1034.6
2019-03-20T05:07:03.599Z,1034.6
2019-03-20T05:08:03.257Z,1034.6
2019-03-20T05:09:03.232Z,1034.6
2019-03-20T05:10:03.577Z,1034.6
2019-03-20T05:11:03.020Z,1034.6
2019-03-20T05:12:03.407Z,1034.7
2019-03-20T05:13:03.098Z,1034.6
2019-03-20T05:14:03.217Z,1034.6
2019-03-20T05:15:03.171Z,1034.7
2019-03-20T05:16:03.221Z,1034.6
2019-03-20T05:17:03.142Z,1034.7
2019-03-20T05:18:03.182Z,1034.7
2019-03-20T05:19:03.203Z,1034.7
2019-03-20T05:20:02.943Z,1034.7
2019-03-20T05:21:03.054Z,1034.6
2019-03-20T05:22:03.003Z,1034.8
2019-03-20T05:23:03.089Z,1034.7
2019-03-20T05:24:03.875Z,1034.7
2019-03-20T05:25:04.088Z,1034.7
2019-03-20T05:26:03.857Z,1034.7
2019-03-20T05:27:03.887Z,1034.7
2019-03-20T05:28:03.759Z,1034.7
2019-03-20T05:29:03.959Z,1034.7
2019-03-20T05:30:03.890Z,1034.7
2019-03-20T05:31:03.875Z,1034.7
2019-03-20T05:32:04.829Z,1034.7
2019-03-20T05:33:03.655Z,1034.7
2019-03-20T05:34:03.743Z,1034.8
2019-03-20T05:35:03.723Z,1034.8
2019-03-20T05:36:03.953Z,1034.8
2019-03-20T05:37:11.334Z,1034.8
2019-03-20T05:38:03.967Z,1034.8
2019-03-20T05:39:03.801Z,1034.8
2019-03-20T05:40:03.651Z,1034.8
2019-03-20T05:41:03.647Z,1034.9
2019-03-20T05:42:03.576Z,1034.8
2019-03-20T05:43:03.560Z,1034.9
2019-03-20T05:44:03.810Z,1035
2019-03-20T05:45:03.642Z,1034.9
2019-03-20T05:46:03.188Z,1034.9
2019-03-20T05:47:03.804Z,1034.9
2019-03-20T05:48:03.640Z,1034.9
2019-03-20T05:49:03.612Z,1034.9
2019-03-20T05:50:03.653Z,1035
2019-03-20T05:51:03.758Z,1035
2019-03-20T05:52:03.635Z,1034.8
2019-03-20T05:53:03.632Z,1034.8
2019-03-20T05:54:03.491Z,1034.9
2019-03-20T05:55:03.541Z,1034.9
2019-03-20T05:56:03.441Z,1034.9
2019-03-20T05:57:03.460Z,1034.9
2019-03-20T05:58:03.383Z,1034.9
2019-03-20T05:59:03.388Z,1034.9
2019-03-20T06:00:03.731Z,1035
2019-03-20T06:01:03.102Z,1035.1
2019-03-20T06:02:03.527Z,1035
2019-03-20T06:03:03.438Z,1035.1
2019-03-20T06:04:03.239Z,1035.1
2019-03-20T06:05:03.183Z,1035.1
2019-03-20T06:06:03.553Z,1035.1
2019-03-20T06:07:03.385Z,1035.1
2019-03-20T06:08:03.395Z,1035
2019-03-20T06:09:03.293Z,1035.1
2019-03-20T06:10:03.605Z,1035
2019-03-20T06:11:03.572Z,1035.1
2019-03-20T06:12:04.247Z,1035
2019-03-20T06:13:03.690Z,1035.1
2019-03-20T06:14:03.822Z,1035
2019-03-20T06:15:04.011Z,1035.1
2019-03-20T06:16:03.765Z,1035
2019-03-20T06:17:04.081Z,1035
2019-03-20T06:18:03.279Z,1035
2019-03-20T06:19:03.284Z,1035.1
2019-03-20T06:20:03.513Z,1035
2019-03-20T06:21:03.829Z,1035
2019-03-20T06:22:03.810Z,1035
2019-03-20T06:23:03.442Z,1035
2019-03-20T06:24:03.580Z,1035
2019-03-20T06:25:03.046Z,1035.1
2019-03-20T06:26:03.739Z,1035.1
2019-03-20T06:27:04.047Z,1035.2
2019-03-20T06:28:02.971Z,1035.2
2019-03-20T06:29:03.421Z,1035.2
2019-03-20T06:30:03.236Z,1035.1
2019-03-20T06:31:03.249Z,1035.1
2019-03-20T06:32:03.458Z,1035.1
2019-03-20T06:33:03.334Z,1035.1
2019-03-20T06:34:03.344Z,1035.1
2019-03-20T06:35:03.238Z,1035.1
2019-03-20T06:36:03.250Z,1035.1
2019-03-20T06:37:03.614Z,1035.1
2019-03-20T06:38:03.702Z,1035.2
2019-03-20T06:39:05.398Z,1035.2
2019-03-20T06:40:03.590Z,1035.2
2019-03-20T06:41:03.073Z,1035.2
2019-03-20T06:42:03.378Z,1035.2
2019-03-20T06:43:03.696Z,1035.1
2019-03-20T06:44:03.166Z,1035.2
2019-03-20T06:45:03.639Z,1035.1
2019-03-20T06:46:03.596Z,1035.1
2019-03-20T06:47:03.688Z,1035.2
2019-03-20T06:48:03.487Z,1035.1
2019-03-20T06:49:03.747Z,1035.2
2019-03-20T06:50:03.531Z,1035.2
2019-03-20T06:51:03.708Z,1035
2019-03-20T06:52:03.201Z,1035
2019-03-20T06:53:03.990Z,1035.1
2019-03-20T06:54:04.121Z,1035.1
2019-03-20T06:55:04.006Z,1035.1
2019-03-20T06:56:02.914Z,1035
2019-03-20T06:57:03.103Z,1035.1
2019-03-20T06:58:03.876Z,1035.1
2019-03-20T06:59:03.999Z,1035
2019-03-20T07:00:05.910Z,1035
2019-03-20T07:01:03.073Z,1035
2019-03-20T07:02:03.020Z,1035
2019-03-20T07:03:03.188Z,1034.9
2019-03-20T07:04:03.129Z,1035
2019-03-20T07:05:04.001Z,1034.9
2019-03-20T07:06:02.878Z,1034.9
2019-03-20T07:07:03.313Z,1034.9
2019-03-20T07:08:03.463Z,1034.9
2019-03-20T07:09:03.407Z,1034.5
2019-03-20T07:10:03.342Z,1034.4
2019-03-20T07:11:03.052Z,1034.4
2019-03-20T07:12:03.421Z,1034.3
2019-03-20T07:13:03.190Z,1034.4
2019-03-20T07:14:03.301Z,1034.4
2019-03-20T07:15:03.202Z,1034.3
2019-03-20T07:16:03.391Z,1034.3
2019-03-20T07:17:03.203Z,1034.3
2019-03-20T07:18:03.156Z,1034.4
2019-03-20T07:19:03.100Z,1034.3
2019-03-20T07:20:03.351Z,1034.3
2019-03-20T07:21:03.071Z,1034.2
2019-03-20T07:22:04.290Z,1034.2
2019-03-20T07:23:03.178Z,1034.1
2019-03-20T07:24:03.068Z,1034.2
2019-03-20T07:25:03.213Z,1034.3
2019-03-20T07:26:03.254Z,1034.3
2019-03-20T07:27:03.912Z,1034.2
2019-03-20T07:28:03.156Z,1034.2
2019-03-20T07:29:03.995Z,1034.3
2019-03-20T07:30:03.897Z,1034.3
2019-03-20T07:31:16.360Z,1034.1
2019-03-20T07:32:04.361Z,1034.1
2019-03-20T07:33:03.837Z,1034.1
2019-03-20T07:34:03.023Z,1034.2
2019-03-20T07:35:02.927Z,1034.2
2019-03-20T07:36:03.824Z,1034.1
2019-03-20T07:37:03.058Z,1034.3
2019-03-20T07:38:03.789Z,1034.2
2019-03-20T07:39:03.922Z,1034.2
2019-03-20T07:40:03.600Z,1034.2
2019-03-20T07:41:03.594Z,1034.2
2019-03-20T07:42:03.639Z,1034.1
2019-03-20T07:43:09.862Z,1034.1
2019-03-20T07:44:03.718Z,1034.1
2019-03-20T07:45:03.877Z,1034.2
2019-03-20T07:46:03.788Z,1034.2
2019-03-20T07:47:03.680Z,1034.2
2019-03-20T07:48:03.022Z,1034.2
2019-03-20T07:49:03.848Z,1034.2
2019-03-20T07:50:03.733Z,1034.2
2019-03-20T07:51:03.841Z,1034.2
2019-03-20T07:52:02.892Z,1034.2
2019-03-20T07:53:03.824Z,1034.1
2019-03-20T07:54:03.870Z,1034.1
2019-03-20T07:55:03.787Z,1034.1
2019-03-20T07:56:03.864Z,1034.2
2019-03-20T07:57:03.804Z,1034.1
2019-03-20T07:58:03.964Z,1034.1
2019-03-20T07:59:03.839Z,1034.2
2019-03-20T08:00:03.591Z,1034
2019-03-20T08:01:03.592Z,1034.1
2019-03-20T08:02:03.384Z,1034.1
2019-03-20T08:03:03.566Z,1034.1
2019-03-20T08:04:03.718Z,1034
2019-03-20T08:05:03.795Z,1034
2019-03-20T08:06:03.523Z,1034
2019-03-20T08:07:03.577Z,1033.9
2019-03-20T08:08:08.347Z,1033.8
2019-03-20T08:09:03.659Z,1033.7
2019-03-20T08:10:03.782Z,1033.7
2019-03-20T08:11:03.790Z,1033.7
2019-03-20T08:12:03.783Z,1033.6
2019-03-20T08:13:03.398Z,1033.6
2019-03-20T08:14:03.291Z,1033.7
2019-03-20T08:15:03.532Z,1033.6
2019-03-20T08:16:04.621Z,1033.6
2019-03-20T08:17:02.410Z,1033.7
2019-03-20T08:18:03.888Z,1033.6
2019-03-20T08:19:02.162Z,1033.5
2019-03-20T08:20:02.068Z,1033.6
2019-03-20T08:21:03.843Z,1033.5
2019-03-20T08:22:03.549Z,1033.5
2019-03-20T08:23:03.592Z,1033.4
2019-03-20T08:24:03.600Z,1033.4
2019-03-20T08:25:03.844Z,1033.4
2019-03-20T08:26:03.561Z,1033.3
2019-03-20T08:27:03.496Z,1033.3
2019-03-20T08:28:03.384Z,1033.4
2019-03-20T08:29:03.358Z,1033.5
2019-03-20T08:30:03.457Z,1033.5
2019-03-20T08:31:03.418Z,1033.4
2019-03-20T08:32:03.518Z,1033.4
2019-03-20T08:33:03.809Z,1033.4
2019-03-20T08:34:03.480Z,1033.5
2019-03-20T08:35:03.834Z,1033.4
2019-03-20T08:36:03.773Z,1033.5
2019-03-20T08:37:03.626Z,1033.5
2019-03-20T08:38:03.323Z,1033.4
2019-03-20T08:39:03.324Z,1033.3
2019-03-20T08:40:03.593Z,1033.4
2019-03-20T08:41:03.212Z,1033.4
2019-03-20T08:43:19.040Z,1033.5
2019-03-20T08:44:03.454Z,1033.5
2019-03-20T08:44:14.658Z,1033.5
2019-03-20T08:45:03.473Z,1033.5
2019-03-20T08:46:03.499Z,1033.5
2019-03-20T08:48:35.576Z,1033.5
2019-03-20T08:49:03.915Z,1033.5
2019-03-20T08:49:16.503Z,1033.5
2019-03-20T08:50:03.131Z,1033.5
2019-03-20T08:51:03.223Z,1033.5
2019-03-20T08:52:03.253Z,1033.5
2019-03-20T08:53:03.521Z,1033.5
2019-03-20T08:54:03.191Z,1033.5
2019-03-20T08:55:03.322Z,1033.5
2019-03-20T08:56:02.806Z,1033.5
2019-03-20T08:57:03.177Z,1033.5
2019-03-20T08:58:38.557Z,1033.5
2019-03-20T08:59:18.981Z,1033.5
2019-03-20T09:00:03.519Z,1033.5
2019-03-20T09:01:02.998Z,1033.5
2019-03-20T09:02:03.206Z,1033.5
2019-03-20T09:03:03.106Z,1033.5
2019-03-20T09:04:03.117Z,1033.5
2019-03-20T09:05:03.146Z,1033.5
2019-03-20T09:06:03.271Z,1033.5
2019-03-20T09:07:03.224Z,1033.5
2019-03-20T09:08:03.253Z,1033.5
2019-03-20T09:09:03.350Z,1033.5
2019-03-20T09:10:03.831Z,1033.5
2019-03-20T09:11:03.348Z,1033.5
2019-03-20T09:12:03.138Z,1033.5
2019-03-20T09:13:03.248Z,1033.5
2019-03-20T09:14:04.253Z,1033.5
2019-03-20T09:15:04.179Z,1033.5
2019-03-20T09:16:03.961Z,1033.5
2019-03-20T09:17:03.093Z,1033.5
2019-03-20T09:18:03.137Z,1033.5
2019-03-20T09:19:03.467Z,1033.5
2019-03-20T09:20:04.045Z,1033.5
2019-03-20T09:21:03.597Z,1033.5
2019-03-20T09:22:03.490Z,1033.5
2019-03-20T09:23:03.656Z,1033.5
2019-03-20T09:24:03.764Z,1033.5
2019-03-20T09:25:03.426Z,1033.5
2019-03-20T09:26:03.893Z,1033.5
2019-03-20T09:27:03.680Z,1033.5
2019-03-20T09:28:03.899Z,1033.5
2019-03-20T09:29:03.318Z,1033.5
2019-03-20T09:30:03.788Z,1033.5
2019-03-20T09:31:03.685Z,1033.5
2019-03-20T09:32:03.601Z,1033.5
2019-03-20T09:33:03.560Z,1033.5
2019-03-20T09:34:04.660Z,1033.5
2019-03-20T09:35:03.698Z,1033.5
2019-03-20T09:36:03.217Z,1033.5
2019-03-20T09:37:03.563Z,1033.5
2019-03-20T09:38:03.551Z,1033.5
2019-03-20T09:39:03.401Z,1033.5
2019-03-20T09:40:03.671Z,1033.5
2019-03-20T09:41:03.375Z,1033.5
2019-03-20T09:42:03.305Z,1033.5
2019-03-20T09:43:03.316Z,1033.5
2019-03-20T09:44:03.424Z,1033.5
2019-03-20T09:45:03.740Z,1033.5
2019-03-20T09:46:03.334Z,1033.5
2019-03-20T09:47:03.327Z,1033.5
2019-03-20T09:48:03.540Z,1033.5
2019-03-20T09:49:03.475Z,1033.5
2019-03-20T09:50:03.554Z,1033.5
2019-03-20T09:51:03.491Z,1033.5
2019-03-20T09:52:03.785Z,1033.5
2019-03-20T09:53:03.411Z,1033.5
2019-03-20T09:54:03.884Z,1033.5
2019-03-20T09:55:03.770Z,1033.5
2019-03-20T09:56:03.855Z,1033.5
2019-03-20T09:57:03.329Z,1033.5
2019-03-20T09:58:12.463Z,1033.5
2019-03-20T09:59:03.844Z,1033.5
2019-03-20T10:00:03.493Z,1033.5
2019-03-20T10:01:03.603Z,1033.5
2019-03-20T10:02:03.501Z,1033.5
2019-03-20T10:03:03.708Z,1033.5
2019-03-20T10:04:03.320Z,1033.5
2019-03-20T10:05:03.602Z,1033.5
2019-03-20T10:06:03.342Z,1033.5
2019-03-20T10:07:03.310Z,1033.5
2019-03-20T10:08:03.044Z,1033.5
2019-03-20T10:09:03.618Z,1033.5
2019-03-20T10:10:03.862Z,1033.5
2019-03-20T10:11:03.671Z,1033.5
2019-03-20T10:12:03.763Z,1033.5
2019-03-20T10:13:03.582Z,1033.5
2019-03-20T10:14:03.473Z,1033.5
2019-03-20T10:15:03.809Z,1033.5
2019-03-20T10:16:03.456Z,1033.5
2019-03-20T10:17:03.191Z,1033.5
2019-03-20T10:18:19.365Z,1033.5
2019-03-20T10:19:03.286Z,1033.5
2019-03-20T10:22:03.637Z,1033.5
2019-03-20T10:22:07.776Z,1033.5
2019-03-20T10:22:17.442Z,1033.5
2019-03-20T10:23:03.466Z,1033.5
2019-03-20T10:24:03.550Z,1033.5
2019-03-20T10:25:03.140Z,1033.5
2019-03-20T10:26:03.332Z,1033.5
2019-03-20T10:27:03.286Z,1033.5
2019-03-20T10:28:03.187Z,1033.5
2019-03-20T10:29:03.475Z,1033.5
2019-03-20T10:30:03.104Z,1033.5
2019-03-20T10:31:03.408Z,1033.5
2019-03-20T10:32:03.387Z,1033.5
2019-03-20T10:33:03.156Z,1033.5
2019-03-20T10:34:03.205Z,1033.5
2019-03-20T10:35:03.364Z,1033.5
2019-03-20T10:36:03.339Z,1033.5
2019-03-20T10:37:03.426Z,1033.5
2019-03-20T10:38:03.339Z,1033.5
2019-03-20T10:39:07.795Z,1033.5
2019-03-20T10:40:03.418Z,1033.5
2019-03-20T10:41:03.359Z,1033.5
2019-03-20T10:42:03.167Z,1033.5
2019-03-20T10:43:03.472Z,1033.5
2019-03-20T10:44:03.371Z,1033.5
2019-03-20T10:45:03.274Z,1033.5
2019-03-20T10:46:03.220Z,1033.5
2019-03-20T10:47:03.448Z,1033.5
2019-03-20T10:48:03.244Z,1033.5
2019-03-20T10:49:03.297Z,1033.5
2019-03-20T10:50:04.217Z,1033.5
2019-03-20T10:51:03.995Z,1033.5
2019-03-20T10:52:04.294Z,1033.5
2019-03-20T10:53:03.889Z,1033.3
2019-03-20T10:54:03.986Z,1033.3
2019-03-20T10:55:03.958Z,1033.3
2019-03-20T10:56:03.857Z,1033.4
2019-03-20T10:57:03.979Z,1033.4
2019-03-20T10:58:04.037Z,1033.4
2019-03-20T10:59:04.012Z,1033.4
2019-03-20T11:00:03.675Z,1033.4
2019-03-20T11:01:04.001Z,1033.4
2019-03-20T11:02:03.550Z,1033.4
2019-03-20T11:03:03.156Z,1033.2
2019-03-20T11:04:04.150Z,1033.2
2019-03-20T11:05:03.181Z,1033.3
2019-03-20T11:06:04.058Z,1033.2
2019-03-20T11:07:03.226Z,1033.2
2019-03-20T11:08:03.973Z,1033.2
2019-03-20T11:09:03.889Z,1033.3
2019-03-20T11:10:03.198Z,1033.3
2019-03-20T11:11:03.067Z,1033.3
2019-03-20T11:12:03.994Z,1033.1
2019-03-20T11:13:04.062Z,1033.3
2019-03-20T11:14:04.098Z,1033.2
2019-03-20T11:15:03.746Z,1033.2
2019-03-20T11:16:03.442Z,1033.3
2019-03-20T11:17:03.548Z,1033.3
2019-03-20T11:18:03.798Z,1033.3
2019-03-20T11:19:03.800Z,1033.3
2019-03-20T11:20:03.958Z,1033.2
2019-03-20T11:21:03.356Z,1033.3
2019-03-20T11:22:03.872Z,1033.3
2019-03-20T11:23:03.875Z,1033.3
2019-03-20T11:24:03.360Z,1033.3
2019-03-20T11:25:03.347Z,1033.3
2019-03-20T11:26:03.547Z,1033.3
2019-03-20T11:27:03.647Z,1033.4
2019-03-20T11:28:04.069Z,1033.5
2019-03-20T11:29:03.578Z,1033.4
2019-03-20T11:30:03.504Z,1033.4
2019-03-20T11:31:03.536Z,1033.2
2019-03-20T11:32:03.405Z,1033.1
2019-03-20T11:33:03.532Z,1033.2
2019-03-20T11:34:03.490Z,1033.2
2019-03-20T11:35:03.568Z,1033.2
2019-03-20T11:36:03.183Z,1033.3
2019-03-20T11:37:03.274Z,1033
2019-03-20T11:38:03.604Z,1033.1
2019-03-20T11:39:03.109Z,1033.1
2019-03-20T11:40:03.481Z,1033.1
2019-03-20T11:41:03.942Z,1033.1
2019-03-20T11:42:03.311Z,1033.1
2019-03-20T11:43:03.219Z,1032.9
2019-03-20T11:44:03.922Z,1032.9
2019-03-20T11:45:03.264Z,1032.9
2019-03-20T11:46:03.942Z,1032.9
2019-03-20T11:47:03.837Z,1032.8
2019-03-20T11:48:04.176Z,1032.8
2019-03-20T11:49:04.061Z,1032.8
2019-03-20T11:50:03.435Z,1032.8
2019-03-20T11:51:03.653Z,1032.8
2019-03-20T11:52:06.866Z,1032.8
2019-03-20T11:53:04.043Z,1032.8
2019-03-20T11:54:04.073Z,1032.8
2019-03-20T11:55:04.185Z,1032.7
2019-03-20T11:56:03.842Z,1032.7
2019-03-20T11:57:03.918Z,1032.8
2019-03-20T11:58:03.638Z,1032.8
2019-03-20T11:59:03.491Z,1032.7
2019-03-20T12:00:03.733Z,1032.7
2019-03-20T12:01:03.979Z,1032.7
2019-03-20T12:02:03.927Z,1032.8
2019-03-20T12:03:04.095Z,1032.7
2019-03-20T12:04:03.714Z,1032.7
2019-03-20T12:05:04.247Z,1032.7
2019-03-20T12:06:03.397Z,1032.7
2019-03-20T12:07:03.956Z,1032.8
2019-03-20T12:08:03.826Z,1032.8
2019-03-20T12:09:03.814Z,1032.9
2019-03-20T12:10:03.974Z,1032.8
2019-03-20T12:11:03.391Z,1032.7
2019-03-20T12:12:03.605Z,1032.8
2019-03-20T12:13:03.607Z,1032.8
2019-03-20T12:14:04.034Z,1032.8
2019-03-20T12:15:03.553Z,1032.7
2019-03-20T12:16:03.871Z,1032.5
2019-03-20T12:17:03.877Z,1032.5
2019-03-20T12:18:03.621Z,1032.5
2019-03-20T12:19:03.781Z,1032.6
2019-03-20T12:20:03.957Z,1032.9
2019-03-20T12:21:03.841Z,1032.7
2019-03-20T12:22:03.558Z,1032.9
2019-03-20T12:23:03.832Z,1032.8
2019-03-20T12:24:03.672Z,1032.9
2019-03-20T12:25:03.782Z,1032.9
2019-03-20T12:26:04.273Z,1032.7
2019-03-20T12:27:16.120Z,1032.8
2019-03-20T12:28:03.455Z,1032.8
2019-03-20T12:29:03.752Z,1032.6
2019-03-20T12:30:03.837Z,1032.6
2019-03-20T12:31:03.821Z,1032.6